Cincinnati, Ohio
Traffic Map
Current Weather Conditions
Cincinnati, Ohio
Overcast Haze
Overcast
46°
Feels Like: 46°
Wind Chill: 46° Ceiling: 600
Heat Index: 46° Visibility: 3mi
Dew Point: 46° Wind: 0mph
Humidity: 100% Direction: ° ()
Pressure: 30.37in Gusts: 0mph
Raw Report DataKLUK 230553Z AUTO 00000KT 3SM BR OVC006 08/08 A3037 RMK AO2 SLP284 T00780078 10078 20072 58010
Traffic Incident Summary
Active as of:
Severity:
Category:
InformationThere was an issue retrieving the traffic information for this location. Please try a different location or try again shortly.
Advertisements